OISA  Abadeh Airport

Add Bookmark

Abadeh, Iran

Status
Operational
Latitude Longitude
31° 10' 0" N 52° 40' 0" E
31.166668 52.666668
Local (DST + 5) UTC (GMT + 4)
Aug 28, 2014 05:30 Aug 28, 2014 01:00
Sunrise-Sunset Local UTC
Begin Civil Twilight 06:07 01:37
Sunrise 06:31 02:01
Sunset 07:29 14:59
End Civil Twilight 07:54 15:24

Current Weather

METAR Observed VFR
OISA 271952Z 30004KT CAVOK 21/M04 Q1021 Wed, Aug 27, 2014 @ 19:52 UTC
(5 Hours, 8 Minutes ago)
Visual Flight Rules
Wind Visibility Clouds Conditions
300° at 4 knots (7 kph) 10 km or more
  • Clear skies
  • No significant weather
Temperatures Readings Precipitation
Current Temp 21°C (70°F)
Dewpoint -4°C (25°F)
Humidity 18%
Altimeter 30.15"Hg
Sea Level Pressure 1021mb
Field Elevation 6574.8'
None Recorded

Additional weather within a 185.2km radius of OISA

Map ICAO Location
OISY 118.7km W (244°)
OIYY 173.2km E (061°)
OISS 180.9km S (182°)

24 Hour Weather History

Loading
-

24 Hour Weather Graphs

Loading
-

CheckWX.com is intended as a tool to help pilots better visualize weather data. It is not intended as a substitute for an official weather briefing obtained from a Flight Service Station. CheckWX.com does not meet the FAA requirements for an official pre-flight weather briefing. Therefore, it's important that pilots still call and obtain an official FSS pre-flight weather briefing.